Time;durP1;ratioP1;P1;durP2;ratioP2;P2;SDS_P1;SDS_P2;PMS_P1;PMS_P2;Temp;Humidity;BMP_temperature;BMP_pressure;BME280_temperature;BME280_humidity;BME280_pressure;Samples;Min_cycle;Max_cycle;Signal;HPM_P1;HPM_P2
2022/02/20 00:01:37;;;;;;;3.22;0.50;;;6.70;99.90;;;;;;6704767;88;20229;-78
2022/02/20 00:11:38;;;;;;;2.60;0.57;;;6.80;99.90;;;;;;6714762;77;20333;-74
2022/02/20 00:21:38;;;;;;;2.30;0.70;;;7.10;99.90;;;;;;6701163;88;20204;-74
2022/02/20 00:31:39;;;;;;;5.45;1.15;;;7.40;99.90;;;;;;6704984;88;20189;-74
2022/02/20 00:41:39;;;;;;;9.53;1.10;;;7.90;99.90;;;;;;6727026;88;20272;-78
2022/02/20 00:51:40;;;;;;;7.55;1.37;;;8.10;99.90;;;;;;6710392;88;20931;-74
2022/02/20 01:01:41;;;;;;;10.98;1.80;;;8.30;99.90;;;;;;6701185;88;20267;-74
2022/02/20 01:11:43;;;;;;;10.55;1.40;;;8.40;99.90;;;;;;6712533;88;20228;-74
2022/02/20 01:21:43;;;;;;;7.25;1.42;;;8.50;99.90;;;;;;6711715;88;20194;-74
2022/02/20 01:31:44;;;;;;;12.10;1.58;;;8.50;99.90;;;;;;6713596;88;20225;-74
2022/02/20 01:41:44;;;;;;;9.43;2.35;;;8.40;99.90;;;;;;6710409;88;20218;-74
2022/02/20 01:51:45;;;;;;;9.25;1.87;;;8.50;99.90;;;;;;6712472;88;20753;-75
2022/02/20 02:01:46;;;;;;;9.98;1.73;;;8.30;99.90;;;;;;6708932;88;20332;-75
2022/02/20 02:11:47;;;;;;;9.90;2.05;;;8.20;99.90;;;;;;6713681;88;20200;-74
2022/02/20 02:21:48;;;;;;;9.25;1.70;;;8.00;99.90;;;;;;6711818;88;20193;-74
2022/02/20 02:31:48;;;;;;;8.30;1.50;;;7.90;99.90;;;;;;6711437;88;20217;-75
2022/02/20 02:41:49;;;;;;;6.43;1.20;;;7.60;99.90;;;;;;6723308;88;20908;-75
2022/02/20 02:51:49;;;;;;;7.78;1.70;;;7.40;99.90;;;;;;6712799;88;20631;-75
2022/02/20 03:01:52;;;;;;;11.05;1.35;;;7.20;99.90;;;;;;6728055;88;20201;-74
2022/02/20 03:11:52;;;;;;;10.93;1.58;;;7.00;99.90;;;;;;6713395;88;20308;-74
2022/02/20 03:21:53;;;;;;;8.73;1.58;;;6.90;99.90;;;;;;6716277;88;20652;-74
2022/02/20 03:31:54;;;;;;;12.63;1.50;;;6.80;99.90;;;;;;6711469;88;20692;-74
2022/02/20 03:41:54;;;;;;;8.43;1.62;;;6.70;99.90;;;;;;6714010;88;20218;-74
2022/02/20 03:51:55;;;;;;;7.80;1.40;;;6.50;99.90;;;;;;6712467;88;20249;-75
2022/02/20 04:01:55;;;;;;;8.43;1.30;;;6.40;99.90;;;;;;6710733;88;20346;-74
2022/02/20 04:11:56;;;;;;;7.97;1.48;;;6.30;99.90;;;;;;6711357;88;20185;-75
2022/02/20 04:21:56;;;;;;;9.40;1.30;;;6.10;99.90;;;;;;6713787;88;20208;-74
2022/02/20 04:31:57;;;;;;;6.50;1.35;;;6.00;99.90;;;;;;6715891;88;20211;-75
2022/02/20 04:41:58;;;;;;;7.03;1.42;;;5.80;99.90;;;;;;6712364;88;20181;-74
2022/02/20 04:51:59;;;;;;;8.90;1.50;;;6.10;99.90;;;;;;6712089;88;20705;-74
2022/02/20 05:01:59;;;;;;;13.40;1.87;;;6.00;99.90;;;;;;6712838;88;20202;-75
2022/02/20 05:12:00;;;;;;;12.10;2.83;;;5.90;99.90;;;;;;6713602;88;20225;-74
2022/02/20 05:22:00;;;;;;;12.48;2.20;;;5.80;99.90;;;;;;6730060;88;20194;-74
2022/02/20 05:32:01;;;;;;;7.05;1.80;;;6.00;99.90;;;;;;6712689;88;20197;-74
2022/02/20 05:42:01;;;;;;;8.77;1.80;;;6.20;99.90;;;;;;6713952;88;20659;-74
2022/02/20 05:52:02;;;;;;;9.87;1.80;;;6.30;99.90;;;;;;6710836;88;21095;-75
2022/02/20 06:02:03;;;;;;;6.78;1.65;;;6.50;99.90;;;;;;6726034;88;20488;-74
2022/02/20 06:12:04;;;;;;;8.18;1.45;;;6.70;99.90;;;;;;6718168;88;20222;-74
2022/02/20 06:22:04;;;;;;;10.45;1.55;;;6.90;99.90;;;;;;6718161;88;20209;-74
2022/02/20 06:32:05;;;;;;;8.02;1.48;;;7.00;99.90;;;;;;6720696;88;20190;-74
2022/02/20 06:42:06;;;;;;;13.45;1.85;;;7.00;99.90;;;;;;6723762;88;20197;-74
2022/02/20 06:52:07;;;;;;;10.98;1.50;;;6.70;99.90;;;;;;6712286;88;20949;-74
2022/02/20 07:02:07;;;;;;;12.50;2.00;;;6.60;99.90;;;;;;6713102;88;20255;-74
2022/02/20 07:12:08;;;;;;;14.85;2.10;;;6.60;99.90;;;;;;6713100;88;20203;-74
2022/02/20 07:22:09;;;;;;;13.07;1.98;;;6.60;99.90;;;;;;6719872;88;20292;-74
2022/02/20 07:32:10;;;;;;;8.00;1.30;;;6.70;99.90;;;;;;6715486;88;20676;-74
2022/02/20 07:42:11;;;;;;;8.45;1.60;;;6.80;99.90;;;;;;6705606;88;20190;-74
2022/02/20 07:52:12;;;;;;;7.97;1.40;;;6.90;99.90;;;;;;6704259;88;20226;-74
2022/02/20 08:02:12;;;;;;;9.43;1.30;;;7.00;99.90;;;;;;6700648;88;20182;-73
2022/02/20 08:12:13;;;;;;;6.00;1.10;;;7.30;99.90;;;;;;6707679;88;20670;-73
2022/02/20 08:22:13;;;;;;;1.70;0.50;;;7.40;99.90;;;;;;6704557;88;20198;-76
2022/02/20 08:32:14;;;;;;;3.55;0.50;;;7.80;99.90;;;;;;6712330;88;21058;-74
2022/02/20 08:42:14;;;;;;;1.85;0.40;;;8.10;99.90;;;;;;6706313;88;20305;-74
2022/02/20 08:52:15;;;;;;;2.28;0.40;;;8.40;99.90;;;;;;6708369;88;20772;-74
2022/02/20 09:02:16;;;;;;;2.00;0.40;;;8.70;99.90;;;;;;6712887;88;20194;-74
2022/02/20 09:12:16;;;;;;;1.08;0.10;;;8.90;99.90;;;;;;6701602;88;20226;-73
2022/02/20 09:22:17;;;;;;;0.43;0.15;;;9.10;99.90;;;;;;6704213;88;20297;-73
2022/02/20 09:32:21;;;;;;;1.85;0.30;;;9.20;99.90;;;;;;6702783;88;20282;-73
2022/02/20 09:42:22;;;;;;;0.35;0.10;;;9.50;99.90;;;;;;6705744;88;20680;-73
2022/02/20 09:52:23;;;;;;;0.85;0.20;;;9.70;99.90;;;;;;6704431;88;20203;-74
2022/02/20 10:02:26;;;;;;;0.50;0.20;;;10.00;99.90;;;;;;6705330;88;20738;-73
2022/02/20 10:12:28;;;;;;;0.40;0.13;;;10.00;99.90;;;;;;6715118;88;20236;-74
2022/02/20 10:22:35;;;;;;;0.40;0.13;;;10.10;99.90;;;;;;6708968;88;20219;-74
2022/02/20 10:32:36;;;;;;;0.40;0.20;;;10.20;99.90;;;;;;6709730;88;20187;-74
2022/02/20 10:42:37;;;;;;;1.48;0.20;;;10.30;99.90;;;;;;6704676;88;20887;-75
2022/02/20 10:52:37;;;;;;;0.37;0.17;;;10.40;99.90;;;;;;6707993;88;20691;-75
2022/02/20 11:02:38;;;;;;;1.08;0.25;;;10.50;99.90;;;;;;6707348;88;20205;-75
2022/02/20 11:12:39;;;;;;;1.25;0.30;;;10.60;99.90;;;;;;6709384;88;20187;-75
2022/02/20 11:22:43;;;;;;;0.30;0.10;;;10.70;99.90;;;;;;6707618;88;20295;-73
2022/02/20 11:32:45;;;;;;;0.22;0.10;;;10.80;99.90;;;;;;6706470;88;20305;-75
2022/02/20 11:43:01;;;;;;;0.80;0.20;;;11.10;99.90;;;;;;6708989;88;22232;-73
2022/02/20 11:53:07;;;;;;;0.70;0.20;;;11.00;99.90;;;;;;6711231;88;20204;-75
2022/02/20 12:03:19;;;;;;;1.70;0.20;;;10.80;99.90;;;;;;6711636;88;20215;-74
2022/02/20 12:13:19;;;;;;;0.80;0.30;;;10.60;99.90;;;;;;6708483;88;20185;-74
2022/02/20 12:23:36;;;;;;;1.15;0.32;;;10.70;99.90;;;;;;6704750;88;20238;-74
2022/02/20 12:33:42;;;;;;;1.67;0.40;;;10.80;99.90;;;;;;6700022;88;20201;-75
2022/02/20 12:43:51;;;;;;;1.87;0.62;;;10.90;99.90;;;;;;6701402;88;20189;-74
2022/02/20 12:53:51;;;;;;;7.28;0.80;;;11.00;99.90;;;;;;6699455;88;20235;-74
2022/02/20 13:03:53;;;;;;;2.58;0.80;;;11.10;99.90;;;;;;6696127;88;20380;-74
2022/02/20 13:14:07;;;;;;;4.32;0.52;;;11.20;99.90;;;;;;6696732;88;20249;-75
2022/02/20 13:24:08;;;;;;;4.82;0.95;;;11.50;99.90;;;;;;6700443;88;20259;-75
2022/02/20 13:34:09;;;;;;;5.55;1.10;;;11.50;99.90;;;;;;6698520;88;20210;-75
2022/02/20 13:44:28;;;;;;;4.65;0.90;;;11.60;99.90;;;;;;6699975;88;20200;-75
2022/02/20 13:54:36;;;;;;;4.60;0.90;;;11.60;99.90;;;;;;6700308;88;20210;-75
2022/02/20 14:04:39;;;;;;;7.18;1.35;;;11.60;99.90;;;;;;6704065;88;20224;-75
2022/02/20 14:15:04;;;;;;;6.57;1.23;;;11.60;99.90;;;;;;6704491;88;20369;-75
2022/02/20 14:25:06;;;;;;;7.22;1.45;;;11.30;99.90;;;;;;6700831;88;20209;-76
2022/02/20 14:35:18;;;;;;;6.78;1.05;;;11.20;99.90;;;;;;6703115;88;20198;-76
2022/02/20 14:45:19;;;;;;;6.90;0.93;;;11.10;99.90;;;;;;6717991;88;20207;-75
2022/02/20 14:55:20;;;;;;;3.85;0.98;;;11.20;99.90;;;;;;6712932;88;20201;-75
2022/02/20 15:05:21;;;;;;;4.15;0.85;;;11.20;99.90;;;;;;6702509;88;20338;-76
2022/02/20 15:15:21;;;;;;;5.40;0.75;;;11.20;99.90;;;;;;6705857;88;20202;-75
2022/02/20 15:25:23;;;;;;;4.85;0.98;;;11.30;99.90;;;;;;6705306;88;20319;-75
2022/02/20 15:35:27;;;;;;;3.90;1.10;;;11.20;99.90;;;;;;6705635;88;20202;-75
2022/02/20 15:45:28;;;;;;;3.53;0.77;;;11.20;99.90;;;;;;6705241;88;20200;-75
2022/02/20 15:55:28;;;;;;;5.70;1.10;;;11.10;99.90;;;;;;6704775;88;20203;-75
2022/02/20 16:05:30;;;;;;;8.32;0.90;;;11.10;99.90;;;;;;6703227;88;20210;-75
2022/02/20 16:15:30;;;;;;;4.68;1.10;;;10.90;99.90;;;;;;6705826;88;20328;-75
2022/02/20 16:25:31;;;;;;;3.80;0.68;;;10.80;99.90;;;;;;6705494;88;20684;-74
2022/02/20 16:35:33;;;;;;;5.85;0.70;;;10.80;99.90;;;;;;6702439;88;20228;-75
2022/02/20 16:45:42;;;;;;;2.75;0.50;;;10.40;99.90;;;;;;6706549;88;20657;-75
2022/02/20 16:55:44;;;;;;;4.40;0.52;;;10.50;99.90;;;;;;6709886;88;20616;-75
2022/02/20 17:05:44;;;;;;;2.62;0.73;;;10.20;99.90;;;;;;6709044;88;20232;-75
2022/02/20 17:15:45;;;;;;;2.83;0.80;;;10.20;99.90;;;;;;6705312;88;20365;-74
2022/02/20 17:25:46;;;;;;;2.10;0.50;;;10.10;99.90;;;;;;6707591;88;20215;-74
2022/02/20 17:35:46;;;;;;;3.22;0.65;;;10.40;99.90;;;;;;6708798;88;20194;-75
2022/02/20 17:45:47;;;;;;;1.85;0.50;;;10.60;99.90;;;;;;6720457;88;20281;-72
2022/02/20 17:55:48;;;;;;;2.00;0.47;;;10.70;99.90;;;;;;6712127;88;20201;-74
2022/02/20 18:05:48;;;;;;;3.15;0.77;;;11.10;99.90;;;;;;6706873;88;20209;-74
2022/02/20 18:15:49;;;;;;;2.28;0.60;;;11.10;99.90;;;;;;6707246;88;20634;-73
2022/02/20 18:25:49;;;;;;;6.00;1.45;;;11.30;99.90;;;;;;6706137;88;20218;-73
2022/02/20 18:35:50;;;;;;;3.60;0.88;;;11.30;99.90;;;;;;6714169;88;20206;-74
2022/02/20 18:45:51;;;;;;;5.12;1.02;;;11.40;99.90;;;;;;6705058;88;20198;-74
2022/02/20 18:55:51;;;;;;;6.68;0.98;;;11.40;99.90;;;;;;6705311;88;20197;-72
2022/02/20 19:05:52;;;;;;;3.53;0.90;;;11.50;99.90;;;;;;6705807;88;20738;-73
2022/02/20 19:15:52;;;;;;;4.43;1.20;;;11.40;99.90;;;;;;6705756;88;20660;-73
2022/02/20 19:25:53;;;;;;;6.72;1.23;;;11.40;99.90;;;;;;6715669;88;20262;-73
2022/02/20 19:35:54;;;;;;;4.15;0.90;;;11.40;99.90;;;;;;6705316;88;20207;-73
2022/02/20 19:45:55;;;;;;;5.30;1.17;;;11.40;99.90;;;;;;6706291;88;20770;-75
2022/02/20 19:55:56;;;;;;;3.65;0.65;;;11.50;99.90;;;;;;6701884;88;20629;-73
2022/02/20 20:05:56;;;;;;;3.83;1.25;;;11.60;99.90;;;;;;6705757;88;20185;-73
2022/02/20 20:15:57;;;;;;;3.90;0.88;;;11.70;99.90;;;;;;6706833;88;20231;-73
2022/02/20 20:25:58;;;;;;;4.03;0.85;;;11.80;99.90;;;;;;6704504;88;20293;-73
2022/02/20 20:35:59;;;;;;;3.12;0.68;;;11.70;99.90;;;;;;6700434;88;20376;-74
2022/02/20 20:46:00;;;;;;;3.05;0.70;;;11.70;99.90;;;;;;6709628;88;20270;-73
2022/02/20 20:56:01;;;;;;;2.10;0.60;;;11.90;99.90;;;;;;6705158;88;20238;-72
2022/02/20 21:06:02;;;;;;;3.90;0.65;;;11.90;99.90;;;;;;6706386;88;21075;-73
2022/02/20 21:16:04;;;;;;;2.60;0.75;;;11.80;99.90;;;;;;6703764;88;20223;-73
2022/02/20 21:26:04;;;;;;;1.73;0.30;;;11.80;99.90;;;;;;6710331;88;21022;-73
2022/02/20 21:36:05;;;;;;;4.03;0.68;;;11.90;99.90;;;;;;6708365;88;20240;-73
2022/02/20 21:46:05;;;;;;;1.35;0.37;;;11.80;99.90;;;;;;6701780;88;20222;-74
2022/02/20 21:56:06;;;;;;;3.55;0.70;;;11.80;99.90;;;;;;6702610;88;20229;-72
2022/02/20 22:06:07;;;;;;;2.03;0.35;;;11.80;99.90;;;;;;6701204;88;20229;-72
2022/02/20 22:16:07;;;;;;;5.28;0.98;;;11.60;99.90;;;;;;6704392;88;20210;-73
2022/02/20 22:26:08;;;;;;;3.10;0.52;;;11.40;99.90;;;;;;6707081;88;20243;-74
2022/02/20 22:36:08;;;;;;;2.58;0.40;;;11.40;99.90;;;;;;6709170;88;20208;-74
2022/02/20 22:46:09;;;;;;;2.25;0.60;;;11.10;99.90;;;;;;6714523;77;20171;-75
2022/02/20 22:56:10;;;;;;;1.98;0.40;;;11.00;99.90;;;;;;6706548;88;20193;-75
2022/02/20 23:06:10;;;;;;;1.23;0.50;;;11.20;99.90;;;;;;6706850;88;20190;-76
2022/02/20 23:16:11;;;;;;;1.87;0.52;;;11.20;99.90;;;;;;6710802;88;20178;-76
2022/02/20 23:26:11;;;;;;;2.97;0.40;;;11.20;99.90;;;;;;6718927;88;20207;-76
2022/02/20 23:36:12;;;;;;;1.25;0.40;;;11.40;99.90;;;;;;6712626;88;20554;-76
2022/02/20 23:46:14;;;;;;;7.95;0.80;;;11.50;99.90;;;;;;6726471;88;20692;-77
2022/02/20 23:56:16;;;;;;;5.65;0.70;;;4.60;99.90;;;;;;6720809;88;20315;-77
